map of CMG home
CMG - Airport
Location
City:  Corumbá, Mato Grosso do Sul, Brazil
Name:Corumbá International Airport
ICAO:SBCR
IATA:CMG

Details
Type:Airport (Aerodrome, Airfield)
Use:Public/Civil, International (customs port of entry)
Latitude:19°00'43"S (-19.011930)
Longitude:57°40'23"W (-57.673052)
Datum:WGS 1984
Elevation:461 ft (141 m)
Variation:16.08°W (WMM2015v2 magnetic declination)
-0.18° annual change
Runways:1
Longest:6565 × 148 ft (2001 × 45 m), paved

Time
Time Zone:UTC-4 (DST-3)
Local Time:

Weather
METAR:SBCR 041400Z 21007KT 6000 FEW030 30/23 Q1014
TAF:SBCR 040830Z 0412/0512 21006KT 9999 FEW030 TX34/0418Z TN24/0508Z
BECMG 0412/0414 SCT030
BECMG 0421/0422 CAVOK
RMK PER

Related Locations
Nearby:
Farthest:LLC: 12365 mi / 19900 km
Lal-lo [Cagayan North Intl (Lal-lo Intl)], CAG, PH

Find:

   beyond  
but within

Other Information
Maps:
NOTAMs:
Links:
Sources:

  
  • flag of Brazil
  • flag of Mato Grosso do Sul
  

Sectional Chart

Flight Planning
at skyvector.com

Satellite Image

Google Maps Satellite view

 

Copyright © 2004-2019 Karl L. Swartz. All rights reserved.
The Great Circle Mapper name and logo are trademarks of the Great Circle Mapper.
All other trademarks mentioned herein belong to their respective owners.
Please see credits for attibutions and further copyright information.

  Follow gcmap on Facebook Follow gcmap on Twitter GCmap on LinkedIn

hCard Microformat

Geo Microformat